Latest Weather Observations for Lord Howe Island

IDN60801

Issued at 10:02 pm EST Saturday 25 April 2015 (issued every 30 minutes, with the page automatically refreshed every 10 minutes)

About weather observations | Map of weather stations | Latest weather observations for NSW | Other Formats
Station Details ID: 200839 Name: LORD HOWE ISLAND AERO Lat: -31.54 Lon: 159.08 Height: 5.0 m
Data from the previous 72 hours. | See also: Recent months at Lord Howe Island
Date/Time
EST
Temp
°C
App
Temp
°C
Dew
Point
Rel
Hum
%
Delta-T
°C
Wind Press
QNH
hPa
Press
MSL
hPa
Rain
since 9 am
mm
Dir
 
Spd
km/h
Gust
km/h
Spd
kts
Gust
kts
25/10:00pm 19.9 21.8 17.6 86 1.4 W 4 9 2 5 1008.7 - 0.0
25/09:30pm 20.0 22.6 17.6 86 1.5 CALM 0 0 0 0 1008.9 - 0.0
25/09:00pm 20.8 22.3 17.6 82 2.0 WNW 6 11 3 6 1009.1 - 0.0
25/08:30pm 20.7 22.2 18.1 85 1.6 WNW 7 9 4 5 1009.1 1009.1 0.0
25/08:00pm 20.2 22.5 17.6 85 1.6 NNW 2 7 1 4 1009.0 - 0.0
25/07:30pm 20.3 22.7 17.9 86 1.5 N 2 7 1 4 1009.1 - 0.0
25/07:00pm 19.4 21.4 17.8 90 1.0 NNW 4 6 2 3 1008.9 - 0.0
25/06:30pm 19.2 21.8 17.4 89 1.1 CALM 0 0 0 0 1008.9 - 0.0
25/06:00pm 19.7 22.3 17.4 86 1.4 CALM 0 0 0 0 1008.6 - 0.0
25/05:30pm 19.9 22.3 17.1 84 1.7 CALM 0 0 0 0 1008.3 1008.3 0.0
25/05:00pm 21.5 22.7 17.3 77 2.6 WNW 7 13 4 7 1008.2 - 0.0
25/04:30pm 22.8 22.7 16.9 69 3.6 W 13 15 7 8 1008.1 - 0.0
25/04:00pm 23.4 24.0 16.9 67 4.0 W 9 11 5 6 1007.8 - 0.0
25/03:30pm 23.6 24.2 16.8 65 4.2 WSW 9 11 5 6 1007.7 - 0.0
25/03:00pm 23.5 23.7 16.7 65 4.2 W 11 15 6 8 1007.9 - 0.0
25/02:30pm 23.9 23.7 16.7 64 4.4 W 13 17 7 9 1008.0 1008.0 0.0
25/02:00pm 23.9 23.3 16.6 63 4.5 WSW 15 19 8 10 1008.0 - 0.0
25/01:30pm 23.6 22.7 16.8 65 4.2 W 17 20 9 11 1008.0 - 0.0
25/01:00pm 23.9 23.2 17.3 66 4.1 WSW 17 20 9 11 1008.2 - 0.0
25/12:30pm 23.8 23.0 17.2 66 4.1 W 17 20 9 11 1008.3 - 0.0
25/12:00pm 23.9 22.6 16.9 65 4.3 WSW 19 22 10 12 1008.8 - 0.0
25/11:30am 23.9 22.8 17.8 68 3.8 W 20 24 11 13 1009.1 1009.1 0.0
25/11:00am 23.8 22.0 17.9 69 3.7 W 24 28 13 15 1009.3 - 0.0
25/10:30am 24.5 23.3 18.5 69 3.8 W 22 30 12 16 1009.6 - 0.0
25/10:00am 24.5 24.4 17.8 66 4.2 W 15 20 8 11 1009.8 - 0.0
25/09:30am 24.4 24.7 18.0 67 4.0 W 13 19 7 10 1009.8 - 0.0
25/09:00am 24.2 23.9 17.3 65 4.3 W 15 20 8 11 1010.0 - 0.0
25/08:30am 23.9 24.2 16.9 65 4.3 WNW 11 17 6 9 1010.0 1010.0 8.4
25/08:00am 23.7 24.1 17.2 67 4.0 WNW 11 17 6 9 1010.0 - 8.4
25/07:30am 22.9 23.3 17.2 70 3.5 WNW 11 19 6 10 1009.9 - 8.4
25/07:00am 23.2 24.3 17.0 68 3.8 WNW 7 13 4 7 1009.6 - 8.4
25/06:30am 22.2 22.3 16.4 69 3.5 WNW 11 17 6 9 1009.4 - 8.4
25/06:00am 21.9 20.6 16.8 73 3.1 W 19 24 10 13 1009.1 - 8.4
25/05:30am 21.9 21.1 17.9 78 2.5 W 19 24 10 13 1008.9 1008.9 8.4
25/05:00am 21.9 20.7 17.4 75 2.8 W 20 26 11 14 1008.6 - 8.4
25/04:30am 21.8 20.8 17.9 78 2.4 W 20 22 11 12 1008.5 - 8.4
25/04:00am 21.2 23.0 18.7 86 1.6 WNW 7 9 4 5 1008.5 - 8.4
25/03:30am 21.6 21.9 18.7 83 1.8 W 15 20 8 11 1008.4 - 8.4
25/03:00am 21.8 21.4 19.0 84 1.8 W 19 22 10 12 1008.4 - 8.4
25/02:30am 21.9 21.4 19.1 84 1.8 W 20 24 11 13 1008.4 1008.4 8.4
25/02:00am 21.9 22.1 19.4 86 1.6 W 17 20 9 11 1008.4 - 8.4
25/01:30am 21.8 21.4 19.3 86 1.6 W 20 24 11 13 1008.8 - 8.4
25/01:00am 21.9 21.4 19.2 85 1.7 W 20 26 11 14 1009.1 - 8.4
25/12:30am 21.9 23.9 20.0 89 1.2 W 9 26 5 14 1009.0 - 8.4
25/12:00am 21.5 24.0 19.8 90 1.1 W 6 9 3 5 1009.0 - 8.4
 
Date/Time
EST
Temp
°C
App
Temp
°C
Dew
Point
Rel
Hum
%
Delta-T
°C
Wind Press
QNH
hPa
Press
MSL
hPa
Rain
since 9 am
mm
Dir
 
Spd
km/h
Gust
km/h
Spd
kts
Gust
kts
24/11:30pm 21.5 23.8 19.8 90 1.1 WNW 7 9 4 5 1009.1 1009.1 8.4
24/11:00pm 21.7 24.0 19.8 89 1.2 WNW 7 11 4 6 1009.3 - 8.4
24/10:30pm 21.5 23.9 20.1 92 0.9 NNW 7 17 4 9 1009.4 - 8.4
24/10:00pm 21.4 23.4 20.0 92 0.9 N 9 15 5 8 1009.4 - 8.4
24/09:35pm 21.1 23.3 19.5 90 1.0 NNE 7 13 4 7 1009.5 - 8.4
24/09:30pm 21.0 23.4 19.6 92 0.9 N 6 11 3 6 1009.4 - 8.4
24/09:13pm 20.9 22.5 19.2 90 1.1 NNE 9 15 5 8 1009.7 - 6.8
24/09:05pm 20.7 21.9 19.0 90 1.1 NNE 11 15 6 8 1009.7 - 6.2
24/09:04pm 20.7 21.7 18.6 88 1.3 NNE 11 15 6 8 1009.7 - 6.2
24/09:00pm 20.7 21.9 18.3 86 1.5 NNE 9 15 5 8 1009.7 - 6.2
24/08:40pm 21.7 19.2 20.1 91 1.0 NNE 33 46 18 25 1009.8 - 5.2
24/08:30pm 23.3 21.5 21.5 90 1.2 NE 33 43 18 23 1009.4 1009.4 5.0
24/08:08pm 23.1 21.0 21.0 88 1.4 NE 33 44 18 24 1009.3 - 5.0
24/08:00pm 23.0 20.5 20.9 88 1.4 NE 35 44 19 24 1009.3 - 5.0
24/07:30pm 22.9 20.9 21.1 89 1.2 NNE 33 43 18 23 1009.3 - 5.0
24/07:11pm 22.6 21.1 20.9 90 1.1 NE 30 39 16 21 1009.3 - 5.0
24/07:00pm 22.5 20.3 20.7 89 1.2 NE 33 41 18 22 1009.2 - 5.0
24/06:30pm 22.7 20.7 20.7 88 1.3 NE 32 43 17 23 1009.2 - 4.6
24/06:24pm 22.6 20.5 20.6 88 1.3 NNE 32 41 17 22 1009.0 - 4.6
24/06:08pm 22.4 20.0 20.4 88 1.3 NNE 33 44 18 24 1008.9 - 4.6
24/06:00pm 22.3 19.1 20.3 88 1.3 NE 37 46 20 25 1008.7 - 4.6
24/05:30pm 22.6 21.2 21.1 91 1.0 NE 30 39 16 21 1008.4 1008.4 4.0
24/05:26pm 22.4 20.3 20.6 89 1.2 NE 32 41 17 22 1008.3 - 3.6
24/05:13pm 22.6 20.4 20.3 87 1.5 NE 32 43 17 23 1008.1 - 3.4
24/05:00pm 22.4 21.2 20.9 91 1.0 ENE 28 35 15 19 1008.0 - 3.4
24/04:44pm 22.5 21.3 20.8 90 1.1 NE 28 32 15 17 1008.1 - 3.2
24/04:30pm 22.1 19.8 20.1 88 1.3 NE 32 43 17 23 1008.2 - 3.0
24/04:00pm 22.1 22.1 20.1 88 1.3 NNE 20 28 11 15 1008.3 - 3.0
24/03:41pm 21.5 19.3 19.6 89 1.2 NNE 30 43 16 23 1008.1 - 3.0
24/03:31pm 21.7 19.8 20.1 91 1.0 NNE 30 43 16 23 1008.4 - 2.4
24/03:30pm 22.1 20.8 20.6 91 1.0 NNE 28 43 15 23 1008.4 - 2.2
24/03:27pm 22.6 21.8 20.9 90 1.1 NNE 26 41 14 22 1008.4 - 1.6
24/03:00pm 23.5 24.0 21.2 87 1.5 NNE 20 32 11 17 1008.3 - 0.8
24/02:52pm 23.4 24.0 21.3 88 1.4 NE 20 32 11 17 1008.2 - 0.8
24/02:30pm 23.8 23.9 21.1 85 1.8 NNE 22 33 12 18 1008.5 1008.5 0.8
24/02:16pm 23.6 23.5 20.7 84 1.9 NNE 22 28 12 15 1008.5 - 0.8
24/02:00pm 24.2 24.3 20.4 79 2.5 NNE 20 32 11 17 1008.6 - 0.8
24/01:44pm 23.8 23.9 20.4 81 2.2 NNE 20 33 11 18 1008.7 - 0.8
24/01:30pm 23.5 23.6 20.4 83 2.0 NNE 20 28 11 15 1008.8 - 0.8
24/01:00pm 23.7 24.5 21.3 86 1.6 NNE 19 24 10 13 1008.9 - 0.8
24/12:52pm 23.8 24.4 21.4 86 1.6 NNE 20 24 11 13 1009.1 - 0.8
24/12:30pm 23.8 24.4 21.1 85 1.8 NNE 19 26 10 14 1009.3 - 0.8
24/12:05pm 23.6 23.5 20.0 80 2.3 NNE 20 28 11 15 1009.6 - 0.8
24/12:00pm 23.6 23.7 20.4 82 2.1 NNE 20 28 11 15 1009.6 - 0.8
24/11:30am 23.1 25.0 20.6 86 1.6 NE 11 19 6 10 1009.9 1009.9 0.8
24/11:28am 23.2 25.6 20.9 87 1.5 NE 9 17 5 9 1009.9 - 0.8
24/11:11am 22.4 24.5 20.2 87 1.4 E 9 13 5 7 1010.2 - 0.8
24/11:08am 22.0 23.9 19.8 87 1.4 E 9 13 5 7 1010.2 - 0.8
24/11:00am 22.1 23.5 20.4 90 1.1 ENE 13 19 7 10 1010.3 - 0.6
24/10:53am 21.9 22.5 20.2 90 1.1 NNE 17 26 9 14 1010.6 - 0.6
24/10:42am 22.4 23.8 20.4 88 1.3 NNE 13 19 7 10 1010.7 - 0.6
24/10:30am 21.8 23.2 19.6 87 1.4 N 11 22 6 12 1010.8 - 0.6
24/10:20am 22.9 22.6 21.1 89 1.2 NNE 24 46 13 25 1010.8 - 0.4
24/10:19am 23.0 22.6 21.0 88 1.3 NNE 24 46 13 25 1010.8 - 0.0
24/10:00am 23.6 23.9 20.7 84 1.9 NNE 20 28 11 15 1010.7 - 0.0
24/09:30am 23.4 23.7 20.8 85 1.7 NNE 20 26 11 14 1010.9 - 0.0
24/09:00am 23.9 24.3 21.0 84 1.9 NNE 20 26 11 14 1010.9 - 0.0
24/08:30am 23.6 23.9 20.8 84 1.8 NE 20 26 11 14 1011.1 1011.1 9.6
24/08:00am 23.2 23.6 20.7 86 1.6 NNE 19 22 10 12 1011.2 - 9.6
24/07:30am 23.2 23.5 20.4 84 1.8 NE 19 24 10 13 1011.0 - 9.6
24/07:27am 23.3 24.0 20.4 84 1.9 NNE 17 24 9 13 1011.0 - 9.6
24/07:13am 23.3 23.6 20.4 84 1.9 NE 19 24 10 13 1011.0 - 9.6
24/07:00am 23.3 23.5 20.5 84 1.8 NE 20 22 11 12 1011.0 - 9.6
24/06:30am 22.6 22.7 20.3 87 1.5 NE 20 24 11 13 1010.8 - 9.6
24/06:00am 21.8 21.9 19.9 89 1.2 ENE 19 22 10 12 1010.4 - 9.6
24/05:30am 21.7 21.7 19.7 88 1.3 ENE 19 22 10 12 1010.1 1010.1 9.6
24/05:00am 21.6 21.4 19.4 87 1.4 ENE 19 24 10 13 1010.3 - 9.6
24/04:49am 21.5 21.4 19.6 89 1.2 ENE 19 22 10 12 1010.1 - 9.6
24/04:32am 21.5 22.4 20.1 92 0.9 E 15 20 8 11 1010.1 - 9.6
24/04:30am 21.4 22.3 20.0 92 0.9 E 15 20 8 11 1010.2 - 9.6
24/04:00am 20.8 21.8 18.7 88 1.3 ESE 11 15 6 8 1010.2 - 9.6
24/03:30am 20.6 21.1 18.4 87 1.4 E 13 15 7 8 1010.1 - 9.6
24/03:00am 19.4 21.0 17.9 91 0.9 W 6 7 3 4 1010.1 - 9.6
24/02:52am 19.2 21.6 17.9 92 0.8 SE 2 7 1 4 1010.1 - 9.6
24/02:30am 18.9 20.3 17.9 94 0.6 ESE 7 11 4 6 1010.3 1010.3 9.6
24/02:08am 18.6 21.5 18.1 97 0.3 CALM 0 0 0 0 1010.5 - 9.6
24/02:06am 18.3 20.9 17.6 96 0.4 CALM 0 0 0 0 1010.5 - 9.6
24/02:00am 18.7 21.4 17.7 94 0.6 CALM 0 0 0 0 1010.6 - 9.6
24/01:49am 18.6 21.4 17.9 96 0.4 CALM 0 0 0 0 1010.5 - 9.6
24/01:30am 18.3 20.8 17.3 94 0.6 CALM 0 0 0 0 1010.8 - 9.6
24/01:00am 18.7 20.9 17.4 92 0.8 SSE 2 6 1 3 1010.8 - 9.6
24/12:30am 19.7 21.1 17.9 89 1.1 S 7 11 4 6 1011.3 - 9.6
24/12:00am 20.1 20.5 18.2 89 1.2 SSW 13 17 7 9 1011.4 - 9.6
 
Date/Time
EST
Temp
°C
App
Temp
°C
Dew
Point
Rel
Hum
%
Delta-T
°C
Wind Press
QNH
hPa
Press
MSL
hPa
Rain
since 9 am
mm
Dir
 
Spd
km/h
Gust
km/h
Spd
kts
Gust
kts
23/11:30pm 20.0 20.5 18.4 90 1.0 SSW 13 22 7 12 1011.7 1011.7 9.6
23/11:07pm 20.3 20.5 18.5 89 1.1 SW 15 20 8 11 1012.0 - 9.6
23/11:00pm 20.2 20.5 18.8 92 0.9 SW 15 19 8 10 1011.9 - 9.6
23/10:30pm 20.7 20.3 19.0 90 1.1 WSW 19 24 10 13 1012.2 - 9.4
23/10:00pm 22.9 24.0 19.6 81 2.1 N 13 22 7 12 1012.3 - 9.4
23/09:39pm 22.9 23.3 19.8 83 2.0 NNE 17 28 9 15 1012.2 - 9.4
23/09:30pm 22.9 23.3 19.8 83 2.0 NNE 17 26 9 14 1012.1 - 9.4
23/09:00pm 22.8 22.9 20.0 84 1.8 NNE 19 26 10 14 1012.2 - 9.4
23/08:30pm 22.8 22.6 19.8 83 1.9 NNE 20 33 11 18 1012.2 1012.2 9.4
23/08:00pm 22.8 22.8 19.8 83 1.9 NNE 19 28 10 15 1012.2 - 9.4
23/07:49pm 21.9 23.7 19.5 86 1.5 NNE 9 15 5 8 1012.1 - 9.4
23/07:30pm 21.9 23.6 19.4 86 1.6 NNE 9 15 5 8 1012.0 - 9.4
23/07:00pm 22.2 24.5 19.4 84 1.8 NNW 6 11 3 6 1012.1 - 9.4
23/06:30pm 23.0 24.6 19.9 83 2.0 N 11 19 6 10 1012.0 - 9.4
23/06:00pm 23.0 23.0 20.1 84 1.9 NNE 20 26 11 14 1011.9 - 9.4
23/05:30pm 23.0 23.2 19.4 80 2.3 NNE 17 22 9 12 1011.6 1011.6 9.4
23/05:00pm 22.8 22.4 20.2 85 1.7 NNE 22 28 12 15 1011.2 - 9.4
23/04:30pm 22.9 22.2 20.3 85 1.7 NNE 24 32 13 17 1011.1 - 9.4
23/04:22pm 23.0 22.4 20.5 86 1.6 NNE 24 32 13 17 1011.2 - 9.4
23/04:00pm 23.0 22.8 20.5 86 1.6 NNE 22 28 12 15 1011.0 - 9.4
23/03:51pm 23.1 23.2 20.3 84 1.8 NNE 20 28 11 15 1010.9 - 9.4
23/03:30pm 23.1 22.7 20.2 84 1.9 NNE 22 28 12 15 1011.0 - 9.4
23/03:11pm 23.5 23.6 20.4 83 2.0 NNE 20 26 11 14 1011.1 - 9.4
23/03:00pm 23.6 23.0 20.5 83 2.0 NE 24 32 13 17 1011.1 - 9.4
23/02:58pm 23.6 23.1 20.7 84 1.9 NE 24 32 13 17 1011.1 - 9.4
23/02:30pm 24.1 24.0 20.7 81 2.2 NE 22 - 12 - - 1010.9 -
23/02:00pm 23.8 23.5 21.1 85 1.8 NNE 24 32 13 17 1011.0 - 9.4
23/01:30pm 24.0 23.0 21.3 85 1.8 NE 28 33 15 18 1010.9 - 9.4
23/01:00pm 20.8 22.0 19.1 90 1.1 N 11 15 6 8 1011.5 - 9.4
23/12:44pm 20.7 19.2 16.7 78 2.4 N 20 33 11 18 1012.1 - 6.4
23/12:30pm 20.6 18.3 18.5 88 1.3 NE 28 39 15 21 1012.1 - 4.6
23/12:18pm 20.9 18.1 17.3 80 2.2 NE 28 33 15 18 1012.0 - 4.6
23/12:00pm 21.0 20.7 19.6 92 0.9 NNE 20 39 11 21 1012.4 - 4.4
23/11:30am 21.4 20.8 18.9 86 1.6 ENE 20 39 11 21 1012.7 1012.7 3.4
23/11:18am 20.5 18.3 18.7 89 1.1 ENE 28 39 15 21 1013.0 - 3.4
23/11:04am 21.7 19.0 19.2 86 1.6 NNE 32 43 17 23 1013.2 - 0.4
23/11:00am 22.7 20.5 19.6 82 2.0 NNE 30 43 16 23 1013.0 - 0.0
23/10:46am 23.2 23.1 20.7 86 1.6 NE 22 32 12 17 1012.9 - 0.0
23/10:30am 23.0 22.0 20.4 85 1.7 NNE 26 33 14 18 1013.1 - 0.0
23/10:00am 23.0 22.0 20.5 86 1.6 NE 26 32 14 17 1013.5 - 0.0
23/09:30am 23.0 21.6 19.7 82 2.1 NNE 26 33 14 18 1013.5 - 0.0
23/09:00am 22.1 20.7 19.6 86 1.6 NE 26 35 14 19 1013.8 - 0.0
23/08:34am 22.4 20.7 19.9 86 1.6 NE 28 46 15 25 1013.7 - 0.0
23/08:30am 23.1 22.7 21.0 88 1.4 NE 24 32 13 17 1013.5 1013.5 84.6
23/08:00am 22.7 21.2 20.2 86 1.6 NE 28 35 15 19 1013.7 - 84.6
23/07:30am 22.5 21.1 20.5 88 1.3 NE 28 33 15 18 1013.8 - 84.6
23/07:00am 22.3 20.5 19.6 85 1.7 NE 28 37 15 20 1013.4 - 84.6
23/06:35am 22.1 19.5 17.9 77 2.6 NNE 28 46 15 25 1013.0 - 84.6
23/06:30am 22.1 19.1 17.7 76 2.7 NNE 30 44 16 24 1013.0 - 84.6
23/06:00am 21.8 17.7 18.3 80 2.2 NE 37 48 20 26 1012.8 - 84.6
23/05:30am 21.9 18.3 19.4 86 1.6 NE 37 46 20 25 1013.0 1013.0 84.4
23/05:12am 21.8 19.9 20.2 91 1.0 NNE 30 44 16 24 1013.0 - 84.4
23/05:02am 21.9 19.5 20.0 89 1.2 NNE 32 50 17 27 1012.9 - 84.4
23/05:00am 22.0 19.4 20.0 88 1.3 NNE 33 50 18 27 1013.0 - 84.4
23/04:56am 22.0 19.5 19.8 87 1.4 NNE 32 50 17 27 1013.0 - 84.4
23/04:44am 21.8 18.5 19.3 86 1.6 NNE 35 43 19 23 1013.0 - 84.4
23/04:30am 21.8 17.8 18.4 81 2.1 NNE 37 48 20 26 1012.6 - 84.4
23/04:19am 22.4 21.8 19.7 85 1.7 N 22 46 12 25 1012.3 - 84.4
23/04:00am 22.5 21.3 18.5 78 2.5 N 22 39 12 21 1012.4 - 83.8
23/03:54am 23.0 19.5 20.4 85 1.7 NE 39 48 21 26 1011.9 - 83.8
23/03:45am 23.0 19.1 20.4 85 1.7 NE 41 52 22 28 1011.7 - 83.8
23/03:40am 22.9 19.4 20.4 86 1.6 NE 39 52 21 28 1011.5 - 83.8
23/03:30am 22.8 18.3 20.0 84 1.8 NE 43 54 23 29 1011.4 - 83.8
 
Date/Time
EST
Temp
°C
App
Temp
°C
Dew
Point
Rel
Hum
%
Delta-T
°C
Wind Press
QNH
hPa
Press
MSL
hPa
Rain
since 9 am
mm
Dir
 
Spd
km/h
Gust
km/h
Spd
kts
Gust
kts
22/11:00pm 22.5 20.4 19.8 85 1.7 NE 30 37 16 20 1014.4 - 82.4
22/10:39pm 22.1 20.4 19.8 87 1.5 NE 28 37 15 20 1015.1 - 82.2
22/10:30pm 22.1 20.3 19.6 86 1.6 NNE 28 35 15 19 1015.5 - 82.2
22/10:08pm 22.1 20.2 20.2 89 1.2 NE 30 41 16 22 1015.7 - 81.4
22/10:00pm 21.7 19.0 19.2 86 1.6 NE 32 54 17 29 1015.7 - 81.2
22/09:53pm 21.9 19.9 19.2 85 1.7 NE 28 54 15 29 1015.8 - 81.2
22/09:40pm 21.4 18.3 18.5 83 1.8 NNE 32 41 17 22 1015.7 - 81.2

Other Formats:

Comma delimited format used in spreadsheet applications
http://www.bom.gov.au/fwo/IDN60801/IDN60801.94995.axf

JavaScript Object Notation format (JSON) in row-major order
http://www.bom.gov.au/fwo/IDN60801/IDN60801.94995.json